sensor_id;sensor_type;location;lat;lon;timestamp;pressure;altitude;pressure_sealevel;temperature
44429;BMP180;30134;47.866;-4.222;2022-07-05T00:00:20;102632.00;;;28.70
44429;BMP180;30134;47.866;-4.222;2022-07-05T00:02:46;102631.00;;;28.80
44429;BMP180;30134;47.866;-4.222;2022-07-05T00:05:14;102627.00;;;28.80
44429;BMP180;30134;47.866;-4.222;2022-07-05T00:07:42;102630.00;;;28.60
44429;BMP180;30134;47.866;-4.222;2022-07-05T00:10:08;102629.00;;;28.70
44429;BMP180;30134;47.866;-4.222;2022-07-05T00:12:34;102627.00;;;28.70
44429;BMP180;30134;47.866;-4.222;2022-07-05T00:15:00;102627.00;;;29.00
44429;BMP180;30134;47.866;-4.222;2022-07-05T00:17:26;102627.00;;;28.70
44429;BMP180;30134;47.866;-4.222;2022-07-05T00:19:52;102622.00;;;29.10
44429;BMP180;30134;47.866;-4.222;2022-07-05T00:22:17;102629.00;;;28.60
44429;BMP180;30134;47.866;-4.222;2022-07-05T00:24:44;102633.00;;;29.00
44429;BMP180;30134;47.866;-4.222;2022-07-05T00:27:10;102625.00;;;28.60
44429;BMP180;30134;47.866;-4.222;2022-07-05T00:29:35;102625.00;;;29.00
44429;BMP180;30134;47.866;-4.222;2022-07-05T00:32:01;102626.00;;;28.80
44429;BMP180;30134;47.866;-4.222;2022-07-05T00:34:27;102624.00;;;28.90
44429;BMP180;30134;47.866;-4.222;2022-07-05T00:36:53;102623.00;;;28.80
44429;BMP180;30134;47.866;-4.222;2022-07-05T00:39:18;102622.00;;;28.90
44429;BMP180;30134;47.866;-4.222;2022-07-05T00:41:44;102622.00;;;28.80
44429;BMP180;30134;47.866;-4.222;2022-07-05T00:44:11;102624.00;;;29.00
44429;BMP180;30134;47.866;-4.222;2022-07-05T00:46:38;102626.00;;;28.80
44429;BMP180;30134;47.866;-4.222;2022-07-05T00:49:04;102617.00;;;29.00
44429;BMP180;30134;47.866;-4.222;2022-07-05T00:51:32;102616.00;;;28.90
44429;BMP180;30134;47.866;-4.222;2022-07-05T00:53:59;102618.00;;;28.80
44429;BMP180;30134;47.866;-4.222;2022-07-05T00:56:26;102616.00;;;29.10
44429;BMP180;30134;47.866;-4.222;2022-07-05T00:58:52;102621.00;;;28.60
44429;BMP180;30134;47.866;-4.222;2022-07-05T01:01:18;102617.00;;;29.20
44429;BMP180;30134;47.866;-4.222;2022-07-05T01:03:44;102626.00;;;28.70
44429;BMP180;30134;47.866;-4.222;2022-07-05T01:06:12;102628.00;;;28.90
44429;BMP180;30134;47.866;-4.222;2022-07-05T01:08:42;102630.00;;;29.00
44429;BMP180;30134;47.866;-4.222;2022-07-05T01:11:10;102621.00;;;29.00
44429;BMP180;30134;47.866;-4.222;2022-07-05T01:13:37;102628.00;;;28.70
44429;BMP180;30134;47.866;-4.222;2022-07-05T01:16:03;102627.00;;;29.00
44429;BMP180;30134;47.866;-4.222;2022-07-05T01:18:30;102623.00;;;28.70
44429;BMP180;30134;47.866;-4.222;2022-07-05T01:20:58;102618.00;;;29.10
44429;BMP180;30134;47.866;-4.222;2022-07-05T01:23:27;102617.00;;;28.80
44429;BMP180;30134;47.866;-4.222;2022-07-05T01:25:53;102613.00;;;29.00
44429;BMP180;30134;47.866;-4.222;2022-07-05T01:28:19;102616.00;;;28.70
44429;BMP180;30134;47.866;-4.222;2022-07-05T01:30:46;102608.00;;;28.80
44429;BMP180;30134;47.866;-4.222;2022-07-05T01:33:12;102611.00;;;28.90
44429;BMP180;30134;47.866;-4.222;2022-07-05T01:35:40;102609.00;;;28.80
44429;BMP180;30134;47.866;-4.222;2022-07-05T01:38:06;102611.00;;;29.00
44429;BMP180;30134;47.866;-4.222;2022-07-05T01:40:31;102606.00;;;28.80
44429;BMP180;30134;47.866;-4.222;2022-07-05T01:42:58;102606.00;;;29.00
44429;BMP180;30134;47.866;-4.222;2022-07-05T01:45:24;102603.00;;;28.90
44429;BMP180;30134;47.866;-4.222;2022-07-05T01:48:10;102610.00;;;28.80
44429;BMP180;30134;47.866;-4.222;2022-07-05T01:50:43;102607.00;;;29.20
44429;BMP180;30134;47.866;-4.222;2022-07-05T01:53:16;102607.00;;;28.90
44429;BMP180;30134;47.866;-4.222;2022-07-05T01:55:42;102609.00;;;29.10
44429;BMP180;30134;47.866;-4.222;2022-07-05T01:58:08;102605.00;;;28.80
44429;BMP180;30134;47.866;-4.222;2022-07-05T02:00:48;102607.00;;;29.10
44429;BMP180;30134;47.866;-4.222;2022-07-05T02:03:15;102607.00;;;28.90
44429;BMP180;30134;47.866;-4.222;2022-07-05T02:05:43;102607.00;;;29.00
44429;BMP180;30134;47.866;-4.222;2022-07-05T02:08:10;102600.00;;;28.80
44429;BMP180;30134;47.866;-4.222;2022-07-05T02:10:37;102602.00;;;29.10
44429;BMP180;30134;47.866;-4.222;2022-07-05T02:13:04;102593.00;;;28.70
44429;BMP180;30134;47.866;-4.222;2022-07-05T02:15:36;102599.00;;;29.00
44429;BMP180;30134;47.866;-4.222;2022-07-05T02:18:03;102595.00;;;28.80
44429;BMP180;30134;47.866;-4.222;2022-07-05T02:20:29;102588.00;;;29.00
44429;BMP180;30134;47.866;-4.222;2022-07-05T02:22:55;102592.00;;;28.70
44429;BMP180;30134;47.866;-4.222;2022-07-05T02:25:21;102592.00;;;29.00
44429;BMP180;30134;47.866;-4.222;2022-07-05T02:27:47;102594.00;;;28.70
44429;BMP180;30134;47.866;-4.222;2022-07-05T02:30:14;102581.00;;;29.00
44429;BMP180;30134;47.866;-4.222;2022-07-05T02:32:41;102586.00;;;28.90
44429;BMP180;30134;47.866;-4.222;2022-07-05T02:35:07;102580.00;;;29.00
44429;BMP180;30134;47.866;-4.222;2022-07-05T02:37:34;102594.00;;;28.70
44429;BMP180;30134;47.866;-4.222;2022-07-05T02:40:00;102589.00;;;28.90
44429;BMP180;30134;47.866;-4.222;2022-07-05T02:42:26;102593.00;;;28.80
44429;BMP180;30134;47.866;-4.222;2022-07-05T02:44:51;102597.00;;;29.20
44429;BMP180;30134;47.866;-4.222;2022-07-05T02:47:17;102600.00;;;29.00
44429;BMP180;30134;47.866;-4.222;2022-07-05T02:49:43;102596.00;;;29.10
44429;BMP180;30134;47.866;-4.222;2022-07-05T02:52:09;102604.00;;;29.00
44429;BMP180;30134;47.866;-4.222;2022-07-05T02:54:34;102604.00;;;29.10
44429;BMP180;30134;47.866;-4.222;2022-07-05T02:57:00;102604.00;;;28.90
44429;BMP180;30134;47.866;-4.222;2022-07-05T02:59:26;102609.00;;;29.20
44429;BMP180;30134;47.866;-4.222;2022-07-05T03:01:52;102603.00;;;29.20
44429;BMP180;30134;47.866;-4.222;2022-07-05T03:04:18;102608.00;;;28.70
44429;BMP180;30134;47.866;-4.222;2022-07-05T03:06:44;102612.00;;;29.20
44429;BMP180;30134;47.866;-4.222;2022-07-05T03:09:10;102613.00;;;28.70
44429;BMP180;30134;47.866;-4.222;2022-07-05T03:11:36;102605.00;;;29.10
44429;BMP180;30134;47.866;-4.222;2022-07-05T03:14:02;102610.00;;;29.00
44429;BMP180;30134;47.866;-4.222;2022-07-05T03:16:27;102603.00;;;29.00
44429;BMP180;30134;47.866;-4.222;2022-07-05T03:18:54;102597.00;;;29.00
44429;BMP180;30134;47.866;-4.222;2022-07-05T03:21:21;102601.00;;;28.80
44429;BMP180;30134;47.866;-4.222;2022-07-05T03:23:47;102607.00;;;29.30
44429;BMP180;30134;47.866;-4.222;2022-07-05T03:26:15;102614.00;;;29.10
44429;BMP180;30134;47.866;-4.222;2022-07-05T03:28:41;102613.00;;;29.00
44429;BMP180;30134;47.866;-4.222;2022-07-05T03:31:06;102614.00;;;29.10
44429;BMP180;30134;47.866;-4.222;2022-07-05T03:33:33;102616.00;;;28.70
44429;BMP180;30134;47.866;-4.222;2022-07-05T03:35:59;102611.00;;;29.30
44429;BMP180;30134;47.866;-4.222;2022-07-05T03:38:25;102616.00;;;29.10
44429;BMP180;30134;47.866;-4.222;2022-07-05T03:40:50;102623.00;;;29.20
44429;BMP180;30134;47.866;-4.222;2022-07-05T03:43:17;102623.00;;;28.90
44429;BMP180;30134;47.866;-4.222;2022-07-05T03:45:43;102624.00;;;29.30
44429;BMP180;30134;47.866;-4.222;2022-07-05T03:48:09;102622.00;;;28.80
44429;BMP180;30134;47.866;-4.222;2022-07-05T03:50:34;102624.00;;;29.00
44429;BMP180;30134;47.866;-4.222;2022-07-05T03:53:00;102617.00;;;28.70
44429;BMP180;30134;47.866;-4.222;2022-07-05T03:55:26;102616.00;;;29.10
44429;BMP180;30134;47.866;-4.222;2022-07-05T03:57:52;102620.00;;;28.80
44429;BMP180;30134;47.866;-4.222;2022-07-05T04:00:18;102619.00;;;29.30
44429;BMP180;30134;47.866;-4.222;2022-07-05T04:02:44;102625.00;;;28.70
44429;BMP180;30134;47.866;-4.222;2022-07-05T04:05:10;102629.00;;;29.00
44429;BMP180;30134;47.866;-4.222;2022-07-05T04:07:47;102635.00;;;28.70
44429;BMP180;30134;47.866;-4.222;2022-07-05T04:10:13;102635.00;;;29.00
44429;BMP180;30134;47.866;-4.222;2022-07-05T04:12:39;102642.00;;;28.80
44429;BMP180;30134;47.866;-4.222;2022-07-05T04:15:05;102635.00;;;29.10
44429;BMP180;30134;47.866;-4.222;2022-07-05T04:17:31;102638.00;;;29.00
44429;BMP180;30134;47.866;-4.222;2022-07-05T04:19:57;102641.00;;;29.20
44429;BMP180;30134;47.866;-4.222;2022-07-05T04:22:26;102629.00;;;28.90
44429;BMP180;30134;47.866;-4.222;2022-07-05T04:24:52;102635.00;;;29.10
44429;BMP180;30134;47.866;-4.222;2022-07-05T04:27:36;102643.00;;;28.90
44429;BMP180;30134;47.866;-4.222;2022-07-05T04:30:02;102646.00;;;29.10
44429;BMP180;30134;47.866;-4.222;2022-07-05T04:32:27;102644.00;;;28.90
44429;BMP180;30134;47.866;-4.222;2022-07-05T04:34:53;102649.00;;;29.10
44429;BMP180;30134;47.866;-4.222;2022-07-05T04:37:19;102654.00;;;28.90
44429;BMP180;30134;47.866;-4.222;2022-07-05T04:39:49;102643.00;;;29.10
44429;BMP180;30134;47.866;-4.222;2022-07-05T04:42:14;102647.00;;;29.00
44429;BMP180;30134;47.866;-4.222;2022-07-05T04:44:40;102635.00;;;29.10
44429;BMP180;30134;47.866;-4.222;2022-07-05T04:47:06;102641.00;;;29.00
44429;BMP180;30134;47.866;-4.222;2022-07-05T04:49:31;102638.00;;;29.10
44429;BMP180;30134;47.866;-4.222;2022-07-05T04:51:57;102644.00;;;28.90
44429;BMP180;30134;47.866;-4.222;2022-07-05T04:54:23;102645.00;;;29.30
44429;BMP180;30134;47.866;-4.222;2022-07-05T04:56:49;102644.00;;;29.10
44429;BMP180;30134;47.866;-4.222;2022-07-05T04:59:14;102647.00;;;28.90
44429;BMP180;30134;47.866;-4.222;2022-07-05T05:01:40;102642.00;;;29.20
44429;BMP180;30134;47.866;-4.222;2022-07-05T05:04:06;102641.00;;;29.00
44429;BMP180;30134;47.866;-4.222;2022-07-05T05:06:32;102646.00;;;29.00
44429;BMP180;30134;47.866;-4.222;2022-07-05T05:08:58;102647.00;;;29.10
44429;BMP180;30134;47.866;-4.222;2022-07-05T05:11:24;102648.00;;;28.90
44429;BMP180;30134;47.866;-4.222;2022-07-05T05:13:49;102657.00;;;28.80
44429;BMP180;30134;47.866;-4.222;2022-07-05T05:16:15;102654.00;;;29.30
44429;BMP180;30134;47.866;-4.222;2022-07-05T05:18:41;102658.00;;;28.80
44429;BMP180;30134;47.866;-4.222;2022-07-05T05:21:07;102657.00;;;29.30
44429;BMP180;30134;47.866;-4.222;2022-07-05T05:23:33;102659.00;;;29.00
44429;BMP180;30134;47.866;-4.222;2022-07-05T05:25:59;102660.00;;;29.00
44429;BMP180;30134;47.866;-4.222;2022-07-05T05:28:24;102661.00;;;29.00
44429;BMP180;30134;47.866;-4.222;2022-07-05T05:30:50;102666.00;;;29.20
44429;BMP180;30134;47.866;-4.222;2022-07-05T05:33:16;102653.00;;;29.20
44429;BMP180;30134;47.866;-4.222;2022-07-05T05:35:42;102662.00;;;29.30
44429;BMP180;30134;47.866;-4.222;2022-07-05T05:38:10;102667.00;;;28.90
44429;BMP180;30134;47.866;-4.222;2022-07-05T05:40:36;102671.00;;;29.10
44429;BMP180;30134;47.866;-4.222;2022-07-05T05:43:06;102672.00;;;28.90
44429;BMP180;30134;47.866;-4.222;2022-07-05T05:45:32;102670.00;;;29.10
44429;BMP180;30134;47.866;-4.222;2022-07-05T05:47:59;102671.00;;;28.90
44429;BMP180;30134;47.866;-4.222;2022-07-05T05:50:35;102671.00;;;29.10
44429;BMP180;30134;47.866;-4.222;2022-07-05T05:53:02;102671.00;;;28.80
44429;BMP180;30134;47.866;-4.222;2022-07-05T05:55:29;102680.00;;;29.20
44429;BMP180;30134;47.866;-4.222;2022-07-05T05:57:56;102677.00;;;28.90
44429;BMP180;30134;47.866;-4.222;2022-07-05T06:00:23;102684.00;;;28.90
44429;BMP180;30134;47.866;-4.222;2022-07-05T06:02:50;102680.00;;;28.80
44429;BMP180;30134;47.866;-4.222;2022-07-05T06:05:17;102675.00;;;29.30
44429;BMP180;30134;47.866;-4.222;2022-07-05T06:07:47;102689.00;;;28.90
44429;BMP180;30134;47.866;-4.222;2022-07-05T06:10:30;102692.00;;;29.20
44429;BMP180;30134;47.866;-4.222;2022-07-05T06:12:57;102684.00;;;28.90
44429;BMP180;30134;47.866;-4.222;2022-07-05T06:15:27;102689.00;;;29.30
44429;BMP180;30134;47.866;-4.222;2022-07-05T06:17:53;102687.00;;;29.00
44429;BMP180;30134;47.866;-4.222;2022-07-05T06:20:24;102690.00;;;29.10
44429;BMP180;30134;47.866;-4.222;2022-07-05T06:22:50;102699.00;;;28.90
44429;BMP180;30134;47.866;-4.222;2022-07-05T06:25:17;102698.00;;;29.10
44429;BMP180;30134;47.866;-4.222;2022-07-05T06:27:47;102698.00;;;28.90
44429;BMP180;30134;47.866;-4.222;2022-07-05T06:30:15;102695.00;;;28.90
44429;BMP180;30134;47.866;-4.222;2022-07-05T06:32:42;102697.00;;;28.90
44429;BMP180;30134;47.866;-4.222;2022-07-05T06:35:09;102704.00;;;29.10
44429;BMP180;30134;47.866;-4.222;2022-07-05T06:40:16;102706.00;;;29.10
44429;BMP180;30134;47.866;-4.222;2022-07-05T06:42:42;102712.00;;;28.90
44429;BMP180;30134;47.866;-4.222;2022-07-05T06:45:09;102717.00;;;29.00
44429;BMP180;30134;47.866;-4.222;2022-07-05T06:47:35;102717.00;;;28.90
44429;BMP180;30134;47.866;-4.222;2022-07-05T06:50:01;102713.00;;;29.30
44429;BMP180;30134;47.866;-4.222;2022-07-05T06:52:31;102712.00;;;29.00
44429;BMP180;30134;47.866;-4.222;2022-07-05T06:54:58;102707.00;;;29.10
44429;BMP180;30134;47.866;-4.222;2022-07-05T06:57:24;102708.00;;;29.20
44429;BMP180;30134;47.866;-4.222;2022-07-05T06:59:50;102708.00;;;29.10
44429;BMP180;30134;47.866;-4.222;2022-07-05T07:02:16;102704.00;;;29.10
44429;BMP180;30134;47.866;-4.222;2022-07-05T07:04:42;102704.00;;;28.90
44429;BMP180;30134;47.866;-4.222;2022-07-05T07:07:08;102712.00;;;29.20
44429;BMP180;30134;47.866;-4.222;2022-07-05T07:10:00;102717.00;;;29.00
44429;BMP180;30134;47.866;-4.222;2022-07-05T07:12:27;102719.00;;;29.00
44429;BMP180;30134;47.866;-4.222;2022-07-05T07:14:52;102717.00;;;29.10
44429;BMP180;30134;47.866;-4.222;2022-07-05T07:17:18;102721.00;;;29.00
44429;BMP180;30134;47.866;-4.222;2022-07-05T07:19:44;102714.00;;;29.20
44429;BMP180;30134;47.866;-4.222;2022-07-05T07:22:10;102726.00;;;29.30
44429;BMP180;30134;47.866;-4.222;2022-07-05T07:24:35;102720.00;;;29.30
44429;BMP180;30134;47.866;-4.222;2022-07-05T07:27:01;102721.00;;;29.00
44429;BMP180;30134;47.866;-4.222;2022-07-05T07:29:32;102721.00;;;29.30
44429;BMP180;30134;47.866;-4.222;2022-07-05T07:31:58;102729.00;;;29.30
44429;BMP180;30134;47.866;-4.222;2022-07-05T07:34:24;102731.00;;;29.30
44429;BMP180;30134;47.866;-4.222;2022-07-05T07:36:50;102730.00;;;29.00
44429;BMP180;30134;47.866;-4.222;2022-07-05T07:39:17;102727.00;;;29.30
44429;BMP180;30134;47.866;-4.222;2022-07-05T07:41:42;102733.00;;;29.10
44429;BMP180;30134;47.866;-4.222;2022-07-05T07:44:08;102733.00;;;29.30
44429;BMP180;30134;47.866;-4.222;2022-07-05T07:46:34;102743.00;;;29.20
44429;BMP180;30134;47.866;-4.222;2022-07-05T07:49:00;102741.00;;;29.20
44429;BMP180;30134;47.866;-4.222;2022-07-05T07:51:26;102738.00;;;29.00
44429;BMP180;30134;47.866;-4.222;2022-07-05T07:53:52;102739.00;;;29.30
44429;BMP180;30134;47.866;-4.222;2022-07-05T07:56:18;102738.00;;;28.90
44429;BMP180;30134;47.866;-4.222;2022-07-05T07:58:44;102737.00;;;29.10
44429;BMP180;30134;47.866;-4.222;2022-07-05T08:01:10;102745.00;;;29.20
44429;BMP180;30134;47.866;-4.222;2022-07-05T08:03:37;102745.00;;;28.80
44429;BMP180;30134;47.866;-4.222;2022-07-05T08:06:03;102742.00;;;29.10
44429;BMP180;30134;47.866;-4.222;2022-07-05T08:08:29;102752.00;;;29.20
44429;BMP180;30134;47.866;-4.222;2022-07-05T08:10:55;102749.00;;;29.30
44429;BMP180;30134;47.866;-4.222;2022-07-05T08:13:21;102743.00;;;29.00
44429;BMP180;30134;47.866;-4.222;2022-07-05T08:15:47;102747.00;;;29.40
44429;BMP180;30134;47.866;-4.222;2022-07-05T08:18:12;102750.00;;;29.00
44429;BMP180;30134;47.866;-4.222;2022-07-05T08:20:57;102757.00;;;29.30
44429;BMP180;30134;47.866;-4.222;2022-07-05T08:23:41;102754.00;;;28.10
44429;BMP180;30134;47.866;-4.222;2022-07-05T08:26:07;102748.00;;;27.00
44429;BMP180;30134;47.866;-4.222;2022-07-05T08:28:32;102747.00;;;26.00
44429;BMP180;30134;47.866;-4.222;2022-07-05T08:30:58;102744.00;;;26.80
44429;BMP180;30134;47.866;-4.222;2022-07-05T08:33:24;102742.00;;;25.90
44429;BMP180;30134;47.866;-4.222;2022-07-05T08:35:50;102740.00;;;26.20
44429;BMP180;30134;47.866;-4.222;2022-07-05T08:38:16;102740.00;;;25.70
44429;BMP180;30134;47.866;-4.222;2022-07-05T08:40:46;102740.00;;;25.90
44429;BMP180;30134;47.866;-4.222;2022-07-05T08:43:13;102740.00;;;25.40
44429;BMP180;30134;47.866;-4.222;2022-07-05T08:45:44;102739.00;;;25.70
44429;BMP180;30134;47.866;-4.222;2022-07-05T08:48:11;102742.00;;;25.20
44429;BMP180;30134;47.866;-4.222;2022-07-05T08:50:40;102739.00;;;25.50
44429;BMP180;30134;47.866;-4.222;2022-07-05T08:53:06;102745.00;;;25.30
44429;BMP180;30134;47.866;-4.222;2022-07-05T08:55:32;102745.00;;;25.60
44429;BMP180;30134;47.866;-4.222;2022-07-05T08:57:59;102742.00;;;25.20
44429;BMP180;30134;47.866;-4.222;2022-07-05T09:00:25;102748.00;;;25.30
44429;BMP180;30134;47.866;-4.222;2022-07-05T09:02:51;102755.00;;;25.30
44429;BMP180;30134;47.866;-4.222;2022-07-05T09:05:18;102754.00;;;25.20
44429;BMP180;30134;47.866;-4.222;2022-07-05T09:07:58;102752.00;;;25.00
44429;BMP180;30134;47.866;-4.222;2022-07-05T09:10:30;102759.00;;;25.20
44429;BMP180;30134;47.866;-4.222;2022-07-05T09:12:57;102757.00;;;25.00
44429;BMP180;30134;47.866;-4.222;2022-07-05T09:15:24;102764.00;;;25.20
44429;BMP180;30134;47.866;-4.222;2022-07-05T09:17:50;102755.00;;;25.10
44429;BMP180;30134;47.866;-4.222;2022-07-05T09:20:17;102755.00;;;25.10
44429;BMP180;30134;47.866;-4.222;2022-07-05T09:22:51;102746.00;;;25.00
44429;BMP180;30134;47.866;-4.222;2022-07-05T09:25:23;102744.00;;;25.00
44429;BMP180;30134;47.866;-4.222;2022-07-05T09:27:57;102751.00;;;25.00
44429;BMP180;30134;47.866;-4.222;2022-07-05T09:30:34;102746.00;;;25.20
44429;BMP180;30134;47.866;-4.222;2022-07-05T09:33:01;102748.00;;;24.90
44429;BMP180;30134;47.866;-4.222;2022-07-05T09:35:28;102747.00;;;25.00
44429;BMP180;30134;47.866;-4.222;2022-07-05T09:37:54;102754.00;;;24.90
44429;BMP180;30134;47.866;-4.222;2022-07-05T09:40:22;102749.00;;;24.90
44429;BMP180;30134;47.866;-4.222;2022-07-05T09:42:48;102745.00;;;24.90
44429;BMP180;30134;47.866;-4.222;2022-07-05T09:45:22;102748.00;;;24.80
44429;BMP180;30134;47.866;-4.222;2022-07-05T09:47:53;102746.00;;;24.80
44429;BMP180;30134;47.866;-4.222;2022-07-05T09:50:33;102744.00;;;25.00
44429;BMP180;30134;47.866;-4.222;2022-07-05T09:52:59;102741.00;;;24.90
44429;BMP180;30134;47.866;-4.222;2022-07-05T09:55:25;102732.00;;;25.00
44429;BMP180;30134;47.866;-4.222;2022-07-05T09:57:51;102737.00;;;24.80
44429;BMP180;30134;47.866;-4.222;2022-07-05T10:00:19;102742.00;;;24.70
44429;BMP180;30134;47.866;-4.222;2022-07-05T10:02:46;102740.00;;;24.80
44429;BMP180;30134;47.866;-4.222;2022-07-05T10:05:17;102732.00;;;24.80
44429;BMP180;30134;47.866;-4.222;2022-07-05T10:07:47;102739.00;;;24.80
44429;BMP180;30134;47.866;-4.222;2022-07-05T10:10:18;102727.00;;;24.70
44429;BMP180;30134;47.866;-4.222;2022-07-05T10:12:46;102726.00;;;24.70
44429;BMP180;30134;47.866;-4.222;2022-07-05T10:15:14;102731.00;;;24.80
44429;BMP180;30134;47.866;-4.222;2022-07-05T10:17:46;102733.00;;;24.80
44429;BMP180;30134;47.866;-4.222;2022-07-05T10:20:38;102747.00;;;25.00
44429;BMP180;30134;47.866;-4.222;2022-07-05T10:23:08;102735.00;;;24.70
44429;BMP180;30134;47.866;-4.222;2022-07-05T10:25:39;102734.00;;;24.80
44429;BMP180;30134;47.866;-4.222;2022-07-05T10:28:05;102736.00;;;24.50
44429;BMP180;30134;47.866;-4.222;2022-07-05T10:30:33;102732.00;;;24.80
44429;BMP180;30134;47.866;-4.222;2022-07-05T10:33:01;102725.00;;;24.60
44429;BMP180;30134;47.866;-4.222;2022-07-05T10:35:27;102722.00;;;24.60
44429;BMP180;30134;47.866;-4.222;2022-07-05T10:37:53;102724.00;;;24.40
44429;BMP180;30134;47.866;-4.222;2022-07-05T10:40:19;102738.00;;;24.60
44429;BMP180;30134;47.866;-4.222;2022-07-05T10:42:47;102730.00;;;24.40
44429;BMP180;30134;47.866;-4.222;2022-07-05T10:45:33;102728.00;;;24.50
44429;BMP180;30134;47.866;-4.222;2022-07-05T10:50:45;102740.00;;;24.70
44429;BMP180;30134;47.866;-4.222;2022-07-05T10:53:11;102741.00;;;24.40
44429;BMP180;30134;47.866;-4.222;2022-07-05T10:55:54;102732.00;;;24.70
44429;BMP180;30134;47.866;-4.222;2022-07-05T10:58:22;102726.00;;;24.30
44429;BMP180;30134;47.866;-4.222;2022-07-05T11:01:30;102733.00;;;24.60
44429;BMP180;30134;47.866;-4.222;2022-07-05T11:03:42;102722.00;;;24.30
44429;BMP180;30134;47.866;-4.222;2022-07-05T11:06:19;102724.00;;;24.40
44429;BMP180;30134;47.866;-4.222;2022-07-05T11:11:27;102731.00;;;24.40
44429;BMP180;30134;47.866;-4.222;2022-07-05T11:13:54;102719.00;;;24.20
44429;BMP180;30134;47.866;-4.222;2022-07-05T11:16:25;102721.00;;;24.50
44429;BMP180;30134;47.866;-4.222;2022-07-05T11:19:04;102728.00;;;24.20
44429;BMP180;30134;47.866;-4.222;2022-07-05T11:21:31;102719.00;;;24.40
44429;BMP180;30134;47.866;-4.222;2022-07-05T11:24:22;102720.00;;;24.20
44429;BMP180;30134;47.866;-4.222;2022-07-05T11:26:50;102724.00;;;24.50
44429;BMP180;30134;47.866;-4.222;2022-07-05T11:32:16;102718.00;;;24.20
44429;BMP180;30134;47.866;-4.222;2022-07-05T11:34:44;102713.00;;;24.70
44429;BMP180;30134;47.866;-4.222;2022-07-05T11:39:45;102715.00;;;24.20
44429;BMP180;30134;47.866;-4.222;2022-07-05T11:42:20;102711.00;;;24.30
44429;BMP180;30134;47.866;-4.222;2022-07-05T11:44:50;102719.00;;;24.20
44429;BMP180;30134;47.866;-4.222;2022-07-05T11:47:19;102714.00;;;24.30
44429;BMP180;30134;47.866;-4.222;2022-07-05T11:49:55;102719.00;;;24.20
44429;BMP180;30134;47.866;-4.222;2022-07-05T11:52:28;102710.00;;;24.30
44429;BMP180;30134;47.866;-4.222;2022-07-05T11:55:02;102706.00;;;24.30
44429;BMP180;30134;47.866;-4.222;2022-07-05T11:57:29;102700.00;;;24.30
44429;BMP180;30134;47.866;-4.222;2022-07-05T11:59:55;102705.00;;;24.30
44429;BMP180;30134;47.866;-4.222;2022-07-05T12:02:21;102701.00;;;24.40
44429;BMP180;30134;47.866;-4.222;2022-07-05T12:04:52;102710.00;;;24.30
44429;BMP180;30134;47.866;-4.222;2022-07-05T12:07:48;102696.00;;;24.50
44429;BMP180;30134;47.866;-4.222;2022-07-05T12:10:14;102700.00;;;24.30
44429;BMP180;30134;47.866;-4.222;2022-07-05T12:13:08;102691.00;;;24.30
44429;BMP180;30134;47.866;-4.222;2022-07-05T12:15:38;102686.00;;;24.60
44429;BMP180;30134;47.866;-4.222;2022-07-05T12:18:05;102684.00;;;24.50
44429;BMP180;30134;47.866;-4.222;2022-07-05T12:20:33;102687.00;;;24.70
44429;BMP180;30134;47.866;-4.222;2022-07-05T12:23:00;102695.00;;;24.50
44429;BMP180;30134;47.866;-4.222;2022-07-05T12:25:27;102693.00;;;24.60
44429;BMP180;30134;47.866;-4.222;2022-07-05T12:27:55;102680.00;;;24.40
44429;BMP180;30134;47.866;-4.222;2022-07-05T12:30:22;102678.00;;;24.50
44429;BMP180;30134;47.866;-4.222;2022-07-05T12:32:58;102684.00;;;24.60
44429;BMP180;30134;47.866;-4.222;2022-07-05T12:35:28;102682.00;;;24.60
44429;BMP180;30134;47.866;-4.222;2022-07-05T12:38:05;102682.00;;;24.40
44429;BMP180;30134;47.866;-4.222;2022-07-05T12:40:31;102683.00;;;24.50
44429;BMP180;30134;47.866;-4.222;2022-07-05T12:45:34;102685.00;;;24.80
44429;BMP180;30134;47.866;-4.222;2022-07-05T12:48:02;102686.00;;;24.50
44429;BMP180;30134;47.866;-4.222;2022-07-05T12:50:45;102682.00;;;24.90
44429;BMP180;30134;47.866;-4.222;2022-07-05T12:53:14;102671.00;;;24.50
44429;BMP180;30134;47.866;-4.222;2022-07-05T12:56:04;102684.00;;;24.80
44429;BMP180;30134;47.866;-4.222;2022-07-05T12:58:53;102676.00;;;24.50
44429;BMP180;30134;47.866;-4.222;2022-07-05T13:04:01;102666.00;;;24.50
44429;BMP180;30134;47.866;-4.222;2022-07-05T13:07:01;102674.00;;;24.80
44429;BMP180;30134;47.866;-4.222;2022-07-05T13:17:10;102673.00;;;24.70
44429;BMP180;30134;47.866;-4.222;2022-07-05T13:19:40;102666.00;;;24.60
44429;BMP180;30134;47.866;-4.222;2022-07-05T13:22:07;102662.00;;;24.70
44429;BMP180;30134;47.866;-4.222;2022-07-05T13:24:35;102664.00;;;24.50
44429;BMP180;30134;47.866;-4.222;2022-07-05T13:27:02;102669.00;;;24.80
44429;BMP180;30134;47.866;-4.222;2022-07-05T13:29:29;102656.00;;;24.60
44429;BMP180;30134;47.866;-4.222;2022-07-05T13:31:55;102661.00;;;24.70
44429;BMP180;30134;47.866;-4.222;2022-07-05T13:34:21;102650.00;;;24.50
44429;BMP180;30134;47.866;-4.222;2022-07-05T13:36:55;102652.00;;;24.80
44429;BMP180;30134;47.866;-4.222;2022-07-05T13:39:22;102652.00;;;24.60
44429;BMP180;30134;47.866;-4.222;2022-07-05T13:41:55;102656.00;;;24.80
44429;BMP180;30134;47.866;-4.222;2022-07-05T13:44:21;102645.00;;;24.70
44429;BMP180;30134;47.866;-4.222;2022-07-05T13:46:48;102640.00;;;24.80
44429;BMP180;30134;47.866;-4.222;2022-07-05T13:49:16;102647.00;;;24.60
44429;BMP180;30134;47.866;-4.222;2022-07-05T13:51:43;102645.00;;;25.00
44429;BMP180;30134;47.866;-4.222;2022-07-05T13:54:11;102652.00;;;24.60
44429;BMP180;30134;47.866;-4.222;2022-07-05T13:56:37;102654.00;;;24.60
44429;BMP180;30134;47.866;-4.222;2022-07-05T13:59:03;102652.00;;;24.70
44429;BMP180;30134;47.866;-4.222;2022-07-05T14:01:29;102644.00;;;24.90
44429;BMP180;30134;47.866;-4.222;2022-07-05T14:03:56;102645.00;;;24.70
44429;BMP180;30134;47.866;-4.222;2022-07-05T14:06:24;102655.00;;;25.20
44429;BMP180;30134;47.866;-4.222;2022-07-05T14:08:51;102658.00;;;24.70
44429;BMP180;30134;47.866;-4.222;2022-07-05T14:11:16;102663.00;;;24.90
44429;BMP180;30134;47.866;-4.222;2022-07-05T14:13:43;102657.00;;;24.70
44429;BMP180;30134;47.866;-4.222;2022-07-05T14:16:09;102644.00;;;25.10